sensor_id;sensor_type;location;lat;lon;timestamp;pressure;altitude;pressure_sealevel;temperature;humidity
69058;BME280;56128;37.534;-122.308;2023-04-26T00:00:25;101064.66;;;22.77;55.58
69058;BME280;56128;37.534;-122.308;2023-04-26T00:02:53;101061.66;;;22.72;54.52
69058;BME280;56128;37.534;-122.308;2023-04-26T00:05:20;101059.97;;;22.70;54.11
69058;BME280;56128;37.534;-122.308;2023-04-26T00:07:46;101062.03;;;22.68;52.81
69058;BME280;56128;37.534;-122.308;2023-04-26T00:10:15;101066.38;;;22.63;54.09
69058;BME280;56128;37.534;-122.308;2023-04-26T00:12:41;101070.31;;;22.60;52.13
69058;BME280;56128;37.534;-122.308;2023-04-26T00:15:08;101069.38;;;22.53;53.05
69058;BME280;56128;37.534;-122.308;2023-04-26T00:17:34;101074.16;;;22.51;50.11
69058;BME280;56128;37.534;-122.308;2023-04-26T00:20:01;101071.16;;;22.46;50.57
69058;BME280;56128;37.534;-122.308;2023-04-26T00:22:28;101074.13;;;22.36;49.90
69058;BME280;56128;37.534;-122.308;2023-04-26T00:24:54;101079.13;;;22.32;50.65
69058;BME280;56128;37.534;-122.308;2023-04-26T00:27:20;101073.47;;;22.19;51.46
69058;BME280;56128;37.534;-122.308;2023-04-26T00:29:46;101074.72;;;22.16;50.56
69058;BME280;56128;37.534;-122.308;2023-04-26T00:32:13;101067.47;;;22.09;50.52
69058;BME280;56128;37.534;-122.308;2023-04-26T00:34:39;101076.38;;;22.02;49.75
69058;BME280;56128;37.534;-122.308;2023-04-26T00:37:05;101078.63;;;21.99;49.09
69058;BME280;56128;37.534;-122.308;2023-04-26T00:39:32;101074.34;;;21.81;49.33
69058;BME280;56128;37.534;-122.308;2023-04-26T00:41:59;101075.72;;;21.77;50.43
69058;BME280;56128;37.534;-122.308;2023-04-26T00:44:25;101083.31;;;21.67;49.58
69058;BME280;56128;37.534;-122.308;2023-04-26T00:46:52;101082.88;;;21.55;49.70
69058;BME280;56128;37.534;-122.308;2023-04-26T00:49:22;101089.59;;;21.44;50.36
69058;BME280;56128;37.534;-122.308;2023-04-26T00:51:53;101086.25;;;21.34;49.68
69058;BME280;56128;37.534;-122.308;2023-04-26T00:54:20;101081.41;;;21.21;51.91
69058;BME280;56128;37.534;-122.308;2023-04-26T00:56:47;101080.44;;;21.14;50.70
69058;BME280;56128;37.534;-122.308;2023-04-26T00:59:16;101085.06;;;21.05;51.24
69058;BME280;56128;37.534;-122.308;2023-04-26T01:01:43;101085.78;;;20.99;51.44
69058;BME280;56128;37.534;-122.308;2023-04-26T01:04:11;101089.59;;;20.89;52.20
69058;BME280;56128;37.534;-122.308;2023-04-26T01:06:38;101094.72;;;20.76;51.71
69058;BME280;56128;37.534;-122.308;2023-04-26T01:09:06;101101.16;;;20.67;51.76
69058;BME280;56128;37.534;-122.308;2023-04-26T01:11:37;101099.19;;;20.52;51.64
69058;BME280;56128;37.534;-122.308;2023-04-26T01:14:05;101093.63;;;20.46;52.76
69058;BME280;56128;37.534;-122.308;2023-04-26T01:16:33;101098.75;;;20.32;52.75
69058;BME280;56128;37.534;-122.308;2023-04-26T01:19:10;101105.03;;;20.24;52.82
69058;BME280;56128;37.534;-122.308;2023-04-26T01:21:39;101093.84;;;20.11;52.09
69058;BME280;56128;37.534;-122.308;2023-04-26T01:24:09;101098.13;;;20.05;52.24
69058;BME280;56128;37.534;-122.308;2023-04-26T01:26:37;101102.03;;;19.94;52.11
69058;BME280;56128;37.534;-122.308;2023-04-26T01:29:18;101104.22;;;19.83;51.87
69058;BME280;56128;37.534;-122.308;2023-04-26T01:31:46;101114.19;;;19.74;52.82
69058;BME280;56128;37.534;-122.308;2023-04-26T01:34:12;101106.22;;;19.64;53.06
69058;BME280;56128;37.534;-122.308;2023-04-26T01:36:39;101114.72;;;19.53;53.35
69058;BME280;56128;37.534;-122.308;2023-04-26T01:39:05;101109.44;;;19.43;53.44
69058;BME280;56128;37.534;-122.308;2023-04-26T01:41:33;101112.47;;;19.32;52.82
69058;BME280;56128;37.534;-122.308;2023-04-26T01:44:00;101114.31;;;19.23;53.51
69058;BME280;56128;37.534;-122.308;2023-04-26T01:46:26;101117.84;;;19.15;53.41
69058;BME280;56128;37.534;-122.308;2023-04-26T01:48:52;101120.00;;;19.03;54.10
69058;BME280;56128;37.534;-122.308;2023-04-26T01:51:19;101121.16;;;18.92;54.17
69058;BME280;56128;37.534;-122.308;2023-04-26T01:53:46;101118.53;;;18.82;54.77
69058;BME280;56128;37.534;-122.308;2023-04-26T01:56:12;101126.78;;;18.73;55.90
69058;BME280;56128;37.534;-122.308;2023-04-26T01:58:38;101119.41;;;18.57;54.87
69058;BME280;56128;37.534;-122.308;2023-04-26T02:01:06;101125.47;;;18.50;55.75
69058;BME280;56128;37.534;-122.308;2023-04-26T02:03:33;101131.00;;;18.41;55.06
69058;BME280;56128;37.534;-122.308;2023-04-26T02:06:00;101130.97;;;18.32;56.58
69058;BME280;56128;37.534;-122.308;2023-04-26T02:08:26;101127.28;;;18.15;55.94
69058;BME280;56128;37.534;-122.308;2023-04-26T02:10:52;101132.78;;;18.06;56.55
69058;BME280;56128;37.534;-122.308;2023-04-26T02:13:19;101123.84;;;17.87;56.71
69058;BME280;56128;37.534;-122.308;2023-04-26T02:15:46;101134.03;;;17.75;56.47
69058;BME280;56128;37.534;-122.308;2023-04-26T02:18:12;101122.44;;;17.65;56.80
69058;BME280;56128;37.534;-122.308;2023-04-26T02:20:41;101126.91;;;17.56;57.44
69058;BME280;56128;37.534;-122.308;2023-04-26T02:23:09;101132.16;;;17.40;58.06
69058;BME280;56128;37.534;-122.308;2023-04-26T02:25:35;101143.88;;;17.30;58.53
69058;BME280;56128;37.534;-122.308;2023-04-26T02:28:02;101138.56;;;17.20;58.96
69058;BME280;56128;37.534;-122.308;2023-04-26T02:30:29;101146.56;;;17.12;59.33
69058;BME280;56128;37.534;-122.308;2023-04-26T02:32:56;101150.31;;;17.01;60.15
69058;BME280;56128;37.534;-122.308;2023-04-26T02:35:22;101153.19;;;16.90;61.16
69058;BME280;56128;37.534;-122.308;2023-04-26T02:37:49;101155.94;;;16.80;61.26
69058;BME280;56128;37.534;-122.308;2023-04-26T02:40:18;101150.84;;;16.67;61.63
69058;BME280;56128;37.534;-122.308;2023-04-26T02:42:44;101154.88;;;16.53;62.81
69058;BME280;56128;37.534;-122.308;2023-04-26T02:45:10;101155.38;;;16.39;63.67
69058;BME280;56128;37.534;-122.308;2023-04-26T02:47:40;101164.63;;;16.27;64.00
69058;BME280;56128;37.534;-122.308;2023-04-26T02:50:07;101163.06;;;16.14;64.44
69058;BME280;56128;37.534;-122.308;2023-04-26T02:52:36;101168.06;;;15.99;65.50
69058;BME280;56128;37.534;-122.308;2023-04-26T02:55:03;101175.00;;;15.92;68.00
69058;BME280;56128;37.534;-122.308;2023-04-26T02:57:30;101181.94;;;15.75;69.23
69058;BME280;56128;37.534;-122.308;2023-04-26T02:59:59;101181.22;;;15.63;70.86
69058;BME280;56128;37.534;-122.308;2023-04-26T03:02:26;101175.25;;;15.50;71.11
69058;BME280;56128;37.534;-122.308;2023-04-26T03:04:52;101183.00;;;15.43;72.03
69058;BME280;56128;37.534;-122.308;2023-04-26T03:07:19;101191.06;;;15.33;73.45
69058;BME280;56128;37.534;-122.308;2023-04-26T03:09:48;101184.13;;;15.21;73.90
69058;BME280;56128;37.534;-122.308;2023-04-26T03:12:37;101199.28;;;15.12;75.66
69058;BME280;56128;37.534;-122.308;2023-04-26T03:15:04;101204.72;;;15.01;77.04
69058;BME280;56128;37.534;-122.308;2023-04-26T03:17:30;101200.31;;;14.90;78.34
69058;BME280;56128;37.534;-122.308;2023-04-26T03:19:56;101205.78;;;14.79;80.75
69058;BME280;56128;37.534;-122.308;2023-04-26T03:22:23;101199.06;;;14.73;82.37
69058;BME280;56128;37.534;-122.308;2023-04-26T03:24:49;101204.34;;;14.63;83.46
69058;BME280;56128;37.534;-122.308;2023-04-26T03:27:16;101206.16;;;14.53;86.72
69058;BME280;56128;37.534;-122.308;2023-04-26T03:29:42;101200.84;;;14.41;87.67
69058;BME280;56128;37.534;-122.308;2023-04-26T03:32:08;101201.34;;;14.35;88.68
69058;BME280;56128;37.534;-122.308;2023-04-26T03:34:34;101203.00;;;14.26;89.59
69058;BME280;56128;37.534;-122.308;2023-04-26T03:37:01;101208.28;;;14.17;88.79
69058;BME280;56128;37.534;-122.308;2023-04-26T03:39:28;101218.59;;;14.11;89.82
69058;BME280;56128;37.534;-122.308;2023-04-26T03:41:54;101211.81;;;13.96;91.69
69058;BME280;56128;37.534;-122.308;2023-04-26T03:44:20;101216.97;;;13.88;94.07
69058;BME280;56128;37.534;-122.308;2023-04-26T03:46:46;101218.72;;;13.77;94.84
69058;BME280;56128;37.534;-122.308;2023-04-26T03:49:15;101221.81;;;13.73;94.48
69058;BME280;56128;37.534;-122.308;2023-04-26T03:51:42;101219.72;;;13.65;94.55
69058;BME280;56128;37.534;-122.308;2023-04-26T03:54:08;101229.31;;;13.58;94.32
69058;BME280;56128;37.534;-122.308;2023-04-26T03:56:34;101228.09;;;13.51;95.12
69058;BME280;56128;37.534;-122.308;2023-04-26T03:59:04;101233.34;;;13.41;94.52
69058;BME280;56128;37.534;-122.308;2023-04-26T04:01:34;101224.31;;;13.30;95.81
69058;BME280;56128;37.534;-122.308;2023-04-26T04:04:01;101234.94;;;13.21;95.49
69058;BME280;56128;37.534;-122.308;2023-04-26T04:06:29;101238.09;;;13.14;95.70
69058;BME280;56128;37.534;-122.308;2023-04-26T04:08:57;101243.34;;;13.05;98.47
69058;BME280;56128;37.534;-122.308;2023-04-26T04:11:23;101244.44;;;13.02;99.44
69058;BME280;56128;37.534;-122.308;2023-04-26T04:13:52;101249.59;;;13.05;100.00
69058;BME280;56128;37.534;-122.308;2023-04-26T04:16:18;101248.50;;;12.96;100.00
69058;BME280;56128;37.534;-122.308;2023-04-26T04:18:44;101244.94;;;12.96;100.00
69058;BME280;56128;37.534;-122.308;2023-04-26T04:21:11;101254.84;;;12.95;100.00
69058;BME280;56128;37.534;-122.308;2023-04-26T04:23:37;101259.22;;;12.85;100.00
69058;BME280;56128;37.534;-122.308;2023-04-26T04:26:03;101253.44;;;12.78;100.00
69058;BME280;56128;37.534;-122.308;2023-04-26T04:28:31;101255.66;;;12.73;100.00
69058;BME280;56128;37.534;-122.308;2023-04-26T04:30:59;101261.34;;;12.69;100.00
69058;BME280;56128;37.534;-122.308;2023-04-26T04:33:26;101258.06;;;12.54;100.00
69058;BME280;56128;37.534;-122.308;2023-04-26T04:35:55;101261.81;;;12.51;100.00
69058;BME280;56128;37.534;-122.308;2023-04-26T04:38:21;101264.44;;;12.40;100.00
69058;BME280;56128;37.534;-122.308;2023-04-26T04:40:48;101272.59;;;12.27;100.00
69058;BME280;56128;37.534;-122.308;2023-04-26T04:43:15;101271.44;;;12.18;100.00
69058;BME280;56128;37.534;-122.308;2023-04-26T04:45:42;101278.03;;;12.14;100.00
69058;BME280;56128;37.534;-122.308;2023-04-26T04:48:08;101276.88;;;12.05;100.00
69058;BME280;56128;37.534;-122.308;2023-04-26T04:50:39;101286.22;;;11.99;100.00
69058;BME280;56128;37.534;-122.308;2023-04-26T04:53:07;101295.06;;;11.89;100.00
69058;BME280;56128;37.534;-122.308;2023-04-26T04:55:39;101300.34;;;11.77;100.00
69058;BME280;56128;37.534;-122.308;2023-04-26T04:58:05;101299.19;;;11.68;100.00
69058;BME280;56128;37.534;-122.308;2023-04-26T05:00:32;101297.38;;;11.56;100.00
69058;BME280;56128;37.534;-122.308;2023-04-26T05:02:58;101294.38;;;11.48;100.00
69058;BME280;56128;37.534;-122.308;2023-04-26T05:05:25;101298.50;;;11.41;100.00
69058;BME280;56128;37.534;-122.308;2023-04-26T05:07:51;101300.63;;;11.35;100.00
69058;BME280;56128;37.534;-122.308;2023-04-26T05:10:18;101303.00;;;11.27;100.00
69058;BME280;56128;37.534;-122.308;2023-04-26T05:12:44;101301.94;;;11.17;100.00
69058;BME280;56128;37.534;-122.308;2023-04-26T05:15:11;101302.47;;;11.09;100.00
69058;BME280;56128;37.534;-122.308;2023-04-26T05:17:37;101296.03;;;10.99;100.00
69058;BME280;56128;37.534;-122.308;2023-04-26T05:20:04;101298.94;;;10.96;100.00
69058;BME280;56128;37.534;-122.308;2023-04-26T05:22:32;101303.31;;;10.84;100.00
69058;BME280;56128;37.534;-122.308;2023-04-26T05:25:01;101289.69;;;10.74;100.00
69058;BME280;56128;37.534;-122.308;2023-04-26T05:27:29;101291.19;;;10.65;100.00
69058;BME280;56128;37.534;-122.308;2023-04-26T05:29:55;101298.47;;;10.63;100.00
69058;BME280;56128;37.534;-122.308;2023-04-26T05:32:21;101296.41;;;10.54;100.00
69058;BME280;56128;37.534;-122.308;2023-04-26T05:34:48;101300.47;;;10.47;100.00
69058;BME280;56128;37.534;-122.308;2023-04-26T05:37:14;101292.38;;;10.34;100.00
69058;BME280;56128;37.534;-122.308;2023-04-26T05:39:41;101312.06;;;10.33;100.00
69058;BME280;56128;37.534;-122.308;2023-04-26T05:42:08;101308.19;;;10.24;100.00
69058;BME280;56128;37.534;-122.308;2023-04-26T05:44:35;101314.03;;;10.16;100.00
69058;BME280;56128;37.534;-122.308;2023-04-26T05:47:01;101313.69;;;10.08;100.00
69058;BME280;56128;37.534;-122.308;2023-04-26T05:49:27;101310.25;;;10.06;100.00
69058;BME280;56128;37.534;-122.308;2023-04-26T05:51:54;101311.81;;;9.96;100.00
69058;BME280;56128;37.534;-122.308;2023-04-26T05:54:20;101316.38;;;9.94;100.00
69058;BME280;56128;37.534;-122.308;2023-04-26T05:56:46;101319.56;;;9.86;100.00
69058;BME280;56128;37.534;-122.308;2023-04-26T05:59:13;101313.94;;;9.76;100.00
69058;BME280;56128;37.534;-122.308;2023-04-26T06:01:39;101321.00;;;9.77;100.00
69058;BME280;56128;37.534;-122.308;2023-04-26T06:04:05;101314.53;;;9.67;100.00
69058;BME280;56128;37.534;-122.308;2023-04-26T06:06:31;101323.50;;;9.66;100.00
69058;BME280;56128;37.534;-122.308;2023-04-26T06:08:58;101314.94;;;9.61;100.00
69058;BME280;56128;37.534;-122.308;2023-04-26T06:11:24;101311.69;;;9.55;100.00
69058;BME280;56128;37.534;-122.308;2023-04-26T06:13:51;101315.59;;;9.50;100.00
69058;BME280;56128;37.534;-122.308;2023-04-26T06:16:17;101319.53;;;9.44;100.00
69058;BME280;56128;37.534;-122.308;2023-04-26T06:18:43;101312.56;;;9.41;100.00
69058;BME280;56128;37.534;-122.308;2023-04-26T06:21:10;101311.78;;;9.39;100.00
69058;BME280;56128;37.534;-122.308;2023-04-26T06:23:36;101311.44;;;9.31;100.00
69058;BME280;56128;37.534;-122.308;2023-04-26T06:26:02;101314.94;;;9.32;100.00
69058;BME280;56128;37.534;-122.308;2023-04-26T06:28:28;101313.81;;;9.21;100.00
69058;BME280;56128;37.534;-122.308;2023-04-26T06:30:55;101307.13;;;9.14;100.00
69058;BME280;56128;37.534;-122.308;2023-04-26T06:33:21;101313.72;;;9.08;100.00
69058;BME280;56128;37.534;-122.308;2023-04-26T06:35:47;101317.50;;;9.04;100.00
69058;BME280;56128;37.534;-122.308;2023-04-26T06:38:13;101308.66;;;9.04;100.00
69058;BME280;56128;37.534;-122.308;2023-04-26T06:40:40;101320.25;;;9.03;100.00
69058;BME280;56128;37.534;-122.308;2023-04-26T06:43:06;101320.63;;;8.97;100.00
69058;BME280;56128;37.534;-122.308;2023-04-26T06:45:32;101320.84;;;8.93;100.00
69058;BME280;56128;37.534;-122.308;2023-04-26T06:47:58;101316.13;;;8.83;100.00
69058;BME280;56128;37.534;-122.308;2023-04-26T06:50:26;101316.22;;;8.81;100.00
69058;BME280;56128;37.534;-122.308;2023-04-26T06:52:52;101314.88;;;8.74;100.00
69058;BME280;56128;37.534;-122.308;2023-04-26T06:55:19;101321.41;;;8.68;100.00
69058;BME280;56128;37.534;-122.308;2023-04-26T06:57:45;101319.03;;;8.64;100.00
69058;BME280;56128;37.534;-122.308;2023-04-26T07:00:12;101329.88;;;8.60;100.00
69058;BME280;56128;37.534;-122.308;2023-04-26T07:02:38;101332.75;;;8.57;100.00
69058;BME280;56128;37.534;-122.308;2023-04-26T07:05:05;101327.66;;;8.53;100.00
69058;BME280;56128;37.534;-122.308;2023-04-26T07:07:31;101325.25;;;8.48;100.00
69058;BME280;56128;37.534;-122.308;2023-04-26T07:09:57;101330.91;;;8.42;100.00
69058;BME280;56128;37.534;-122.308;2023-04-26T07:12:24;101329.41;;;8.38;100.00
69058;BME280;56128;37.534;-122.308;2023-04-26T07:14:50;101326.91;;;8.35;100.00
69058;BME280;56128;37.534;-122.308;2023-04-26T07:17:16;101323.47;;;8.33;100.00
69058;BME280;56128;37.534;-122.308;2023-04-26T07:19:42;101325.63;;;8.26;100.00
69058;BME280;56128;37.534;-122.308;2023-04-26T07:22:09;101325.69;;;8.24;100.00
69058;BME280;56128;37.534;-122.308;2023-04-26T07:24:35;101331.03;;;8.24;100.00
69058;BME280;56128;37.534;-122.308;2023-04-26T07:27:01;101332.06;;;8.22;100.00
69058;BME280;56128;37.534;-122.308;2023-04-26T07:29:28;101335.28;;;8.12;100.00
69058;BME280;56128;37.534;-122.308;2023-04-26T07:31:55;101331.91;;;8.09;100.00
69058;BME280;56128;37.534;-122.308;2023-04-26T07:34:21;101328.41;;;8.08;100.00
69058;BME280;56128;37.534;-122.308;2023-04-26T07:36:48;101333.06;;;8.05;100.00
69058;BME280;56128;37.534;-122.308;2023-04-26T07:39:14;101342.19;;;8.01;100.00
69058;BME280;56128;37.534;-122.308;2023-04-26T07:41:40;101338.97;;;7.94;100.00
69058;BME280;56128;37.534;-122.308;2023-04-26T07:44:06;101334.78;;;7.90;100.00
69058;BME280;56128;37.534;-122.308;2023-04-26T07:46:33;101337.59;;;7.87;100.00
69058;BME280;56128;37.534;-122.308;2023-04-26T07:49:00;101327.81;;;7.87;100.00
69058;BME280;56128;37.534;-122.308;2023-04-26T07:51:26;101335.19;;;7.82;100.00
69058;BME280;56128;37.534;-122.308;2023-04-26T07:53:52;101333.38;;;7.83;100.00
69058;BME280;56128;37.534;-122.308;2023-04-26T07:56:20;101322.13;;;7.77;100.00
69058;BME280;56128;37.534;-122.308;2023-04-26T07:58:48;101325.22;;;7.70;100.00
69058;BME280;56128;37.534;-122.308;2023-04-26T08:01:15;101333.22;;;7.70;100.00
69058;BME280;56128;37.534;-122.308;2023-04-26T08:03:41;101327.28;;;7.64;100.00
69058;BME280;56128;37.534;-122.308;2023-04-26T08:06:07;101340.75;;;7.61;100.00
69058;BME280;56128;37.534;-122.308;2023-04-26T08:08:34;101335.75;;;7.55;100.00
69058;BME280;56128;37.534;-122.308;2023-04-26T08:11:07;101340.41;;;7.52;100.00
69058;BME280;56128;37.534;-122.308;2023-04-26T08:13:35;101334.22;;;7.51;100.00
69058;BME280;56128;37.534;-122.308;2023-04-26T08:16:01;101343.31;;;7.47;100.00
69058;BME280;56128;37.534;-122.308;2023-04-26T08:18:27;101331.97;;;7.43;100.00
69058;BME280;56128;37.534;-122.308;2023-04-26T08:20:53;101333.00;;;7.41;100.00
69058;BME280;56128;37.534;-122.308;2023-04-26T08:23:21;101334.88;;;7.39;100.00
69058;BME280;56128;37.534;-122.308;2023-04-26T08:25:47;101336.94;;;7.34;100.00
69058;BME280;56128;37.534;-122.308;2023-04-26T08:28:16;101330.75;;;7.33;100.00
69058;BME280;56128;37.534;-122.308;2023-04-26T08:30:43;101334.25;;;7.34;100.00
69058;BME280;56128;37.534;-122.308;2023-04-26T08:33:09;101335.38;;;7.29;100.00
69058;BME280;56128;37.534;-122.308;2023-04-26T08:35:35;101339.06;;;7.27;100.00
69058;BME280;56128;37.534;-122.308;2023-04-26T08:38:02;101335.78;;;7.22;100.00
69058;BME280;56128;37.534;-122.308;2023-04-26T08:40:28;101334.91;;;7.21;100.00
69058;BME280;56128;37.534;-122.308;2023-04-26T08:42:54;101336.03;;;7.17;100.00
69058;BME280;56128;37.534;-122.308;2023-04-26T08:45:21;101333.38;;;7.17;100.00
69058;BME280;56128;37.534;-122.308;2023-04-26T08:47:52;101322.91;;;7.14;100.00
69058;BME280;56128;37.534;-122.308;2023-04-26T08:50:21;101329.16;;;7.13;100.00
69058;BME280;56128;37.534;-122.308;2023-04-26T08:52:49;101327.34;;;7.13;100.00
69058;BME280;56128;37.534;-122.308;2023-04-26T08:55:17;101323.75;;;7.14;100.00
69058;BME280;56128;37.534;-122.308;2023-04-26T08:57:49;101324.16;;;7.07;100.00
69058;BME280;56128;37.534;-122.308;2023-04-26T09:00:16;101323.03;;;7.11;100.00
69058;BME280;56128;37.534;-122.308;2023-04-26T09:02:49;101313.66;;;7.04;100.00
69058;BME280;56128;37.534;-122.308;2023-04-26T09:05:18;101314.59;;;7.03;100.00
69058;BME280;56128;37.534;-122.308;2023-04-26T09:07:49;101311.31;;;6.97;100.00
69058;BME280;56128;37.534;-122.308;2023-04-26T09:10:18;101309.94;;;6.90;100.00
69058;BME280;56128;37.534;-122.308;2023-04-26T09:12:54;101311.00;;;6.86;100.00
69058;BME280;56128;37.534;-122.308;2023-04-26T09:15:22;101312.91;;;6.84;100.00
69058;BME280;56128;37.534;-122.308;2023-04-26T09:17:49;101302.59;;;6.78;100.00
69058;BME280;56128;37.534;-122.308;2023-04-26T09:23:04;101314.25;;;6.75;100.00
69058;BME280;56128;37.534;-122.308;2023-04-26T09:25:31;101310.00;;;6.71;100.00
69058;BME280;56128;37.534;-122.308;2023-04-26T09:27:59;101308.53;;;6.65;100.00
69058;BME280;56128;37.534;-122.308;2023-04-26T09:30:26;101311.00;;;6.69;100.00
69058;BME280;56128;37.534;-122.308;2023-04-26T09:32:57;101313.69;;;6.69;100.00
69058;BME280;56128;37.534;-122.308;2023-04-26T09:35:30;101309.38;;;6.66;100.00
69058;BME280;56128;37.534;-122.308;2023-04-26T09:38:06;101309.69;;;6.60;100.00
69058;BME280;56128;37.534;-122.308;2023-04-26T09:40:33;101309.78;;;6.58;100.00
69058;BME280;56128;37.534;-122.308;2023-04-26T09:43:03;101309.16;;;6.53;100.00
69058;BME280;56128;37.534;-122.308;2023-04-26T09:45:31;101314.47;;;6.53;100.00
69058;BME280;56128;37.534;-122.308;2023-04-26T09:48:22;101319.97;;;6.50;100.00
69058;BME280;56128;37.534;-122.308;2023-04-26T09:50:52;101323.69;;;6.46;100.00
69058;BME280;56128;37.534;-122.308;2023-04-26T09:53:37;101319.47;;;6.42;100.00
69058;BME280;56128;37.534;-122.308;2023-04-26T09:58:59;101320.56;;;6.38;100.00
69058;BME280;56128;37.534;-122.308;2023-04-26T10:01:30;101310.88;;;6.37;100.00
69058;BME280;56128;37.534;-122.308;2023-04-26T10:04:02;101315.56;;;6.31;100.00
69058;BME280;56128;37.534;-122.308;2023-04-26T10:06:29;101323.53;;;6.31;100.00
69058;BME280;56128;37.534;-122.308;2023-04-26T10:08:57;101317.31;;;6.31;100.00
69058;BME280;56128;37.534;-122.308;2023-04-26T10:11:25;101318.22;;;6.31;100.00
69058;BME280;56128;37.534;-122.308;2023-04-26T10:13:51;101316.78;;;6.24;100.00
69058;BME280;56128;37.534;-122.308;2023-04-26T10:16:19;101317.72;;;6.23;100.00
69058;BME280;56128;37.534;-122.308;2023-04-26T10:18:46;101321.09;;;6.27;100.00
69058;BME280;56128;37.534;-122.308;2023-04-26T10:21:33;101311.63;;;6.21;100.00
69058;BME280;56128;37.534;-122.308;2023-04-26T10:24:03;101313.41;;;6.21;100.00
69058;BME280;56128;37.534;-122.308;2023-04-26T10:26:48;101311.69;;;6.20;100.00
69058;BME280;56128;37.534;-122.308;2023-04-26T10:29:24;101314.59;;;6.15;100.00
69058;BME280;56128;37.534;-122.308;2023-04-26T10:34:34;101312.28;;;6.07;100.00
69058;BME280;56128;37.534;-122.308;2023-04-26T10:37:16;101301.09;;;6.00;100.00
69058;BME280;56128;37.534;-122.308;2023-04-26T10:39:46;101308.97;;;6.02;100.00
69058;BME280;56128;37.534;-122.308;2023-04-26T10:42:24;101315.91;;;6.06;100.00
69058;BME280;56128;37.534;-122.308;2023-04-26T10:44:55;101320.50;;;6.03;100.00
69058;BME280;56128;37.534;-122.308;2023-04-26T10:47:30;101313.59;;;5.98;100.00
69058;BME280;56128;37.534;-122.308;2023-04-26T10:50:08;101319.97;;;5.94;100.00
69058;BME280;56128;37.534;-122.308;2023-04-26T10:53:04;101326.34;;;5.90;100.00
69058;BME280;56128;37.534;-122.308;2023-04-26T10:55:42;101322.63;;;5.94;100.00
69058;BME280;56128;37.534;-122.308;2023-04-26T10:58:27;101321.59;;;5.97;100.00
69058;BME280;56128;37.534;-122.308;2023-04-26T11:01:09;101327.91;;;5.94;100.00
69058;BME280;56128;37.534;-122.308;2023-04-26T11:04:05;101325.47;;;5.90;100.00
69058;BME280;56128;37.534;-122.308;2023-04-26T11:06:53;101323.06;;;5.85;100.00
69058;BME280;56128;37.534;-122.308;2023-04-26T11:09:37;101325.72;;;5.85;100.00
69058;BME280;56128;37.534;-122.308;2023-04-26T11:12:05;101327.50;;;5.84;100.00
69058;BME280;56128;37.534;-122.308;2023-04-26T11:14:35;101329.44;;;5.81;100.00
69058;BME280;56128;37.534;-122.308;2023-04-26T11:17:03;101324.34;;;5.76;100.00
69058;BME280;56128;37.534;-122.308;2023-04-26T11:19:30;101331.59;;;5.73;100.00
69058;BME280;56128;37.534;-122.308;2023-04-26T11:21:57;101327.31;;;5.70;100.00
69058;BME280;56128;37.534;-122.308;2023-04-26T11:24:25;101329.22;;;5.66;100.00
69058;BME280;56128;37.534;-122.308;2023-04-26T11:26:51;101325.06;;;5.61;100.00
69058;BME280;56128;37.534;-122.308;2023-04-26T11:29:21;101329.22;;;5.66;100.00
69058;BME280;56128;37.534;-122.308;2023-04-26T11:31:55;101314.31;;;5.64;100.00
69058;BME280;56128;37.534;-122.308;2023-04-26T11:34:33;101327.50;;;5.65;100.00
69058;BME280;56128;37.534;-122.308;2023-04-26T11:37:04;101324.19;;;5.60;100.00
69058;BME280;56128;37.534;-122.308;2023-04-26T11:39:34;101327.06;;;5.56;100.00
69058;BME280;56128;37.534;-122.308;2023-04-26T11:42:09;101329.44;;;5.62;100.00
69058;BME280;56128;37.534;-122.308;2023-04-26T11:44:36;101317.88;;;5.63;100.00
69058;BME280;56128;37.534;-122.308;2023-04-26T11:47:04;101323.06;;;5.66;100.00
69058;BME280;56128;37.534;-122.308;2023-04-26T11:49:32;101309.84;;;5.64;100.00
69058;BME280;56128;37.534;-122.308;2023-04-26T11:51:59;101319.25;;;5.72;100.00
69058;BME280;56128;37.534;-122.308;2023-04-26T11:54:33;101328.06;;;5.72;100.00
69058;BME280;56128;37.534;-122.308;2023-04-26T11:57:00;101314.16;;;5.67;100.00
69058;BME280;56128;37.534;-122.308;2023-04-26T11:59:28;101326.41;;;5.69;100.00
69058;BME280;56128;37.534;-122.308;2023-04-26T12:01:58;101322.91;;;5.69;100.00
69058;BME280;56128;37.534;-122.308;2023-04-26T12:04:29;101316.03;;;5.65;100.00
69058;BME280;56128;37.534;-122.308;2023-04-26T12:06:56;101330.81;;;5.71;100.00
69058;BME280;56128;37.534;-122.308;2023-04-26T12:09:25;101318.63;;;5.66;100.00
69058;BME280;56128;37.534;-122.308;2023-04-26T12:12:03;101324.00;;;5.65;100.00
69058;BME280;56128;37.534;-122.308;2023-04-26T12:14:32;101323.91;;;5.66;100.00
69058;BME280;56128;37.534;-122.308;2023-04-26T12:17:00;101333.53;;;5.69;100.00
69058;BME280;56128;37.534;-122.308;2023-04-26T12:19:38;101329.22;;;5.66;100.00
69058;BME280;56128;37.534;-122.308;2023-04-26T12:22:07;101329.03;;;5.71;100.00
69058;BME280;56128;37.534;-122.308;2023-04-26T12:24:34;101329.06;;;5.69;100.00
69058;BME280;56128;37.534;-122.308;2023-04-26T12:27:04;101330.81;;;5.71;100.00
69058;BME280;56128;37.534;-122.308;2023-04-26T12:29:34;101337.19;;;5.66;100.00
69058;BME280;56128;37.534;-122.308;2023-04-26T12:32:01;101329.44;;;5.62;100.00